createdAt,value
2022-12-26T00:01:24.262Z,6.51
2022-12-26T00:06:28.624Z,6.52
2022-12-26T00:11:30.491Z,6.52
2022-12-26T00:16:33.133Z,6.51
2022-12-26T00:21:34.984Z,6.52
2022-12-26T00:26:37.430Z,6.53
2022-12-26T00:31:39.137Z,6.59
2022-12-26T00:36:41.413Z,6.62
2022-12-26T00:41:43.307Z,6.60
2022-12-26T00:46:44.876Z,6.61
2022-12-26T00:51:46.478Z,6.60
2022-12-26T00:56:47.980Z,6.62
2022-12-26T01:01:50.403Z,6.66
2022-12-26T01:06:52.004Z,6.69
2022-12-26T01:11:53.490Z,6.68
2022-12-26T01:16:55.100Z,6.72
2022-12-26T01:21:57.108Z,6.66
2022-12-26T01:26:58.675Z,6.69
2022-12-26T01:32:00.362Z,6.71
2022-12-26T01:37:01.914Z,6.73
2022-12-26T01:42:06.100Z,6.70
2022-12-26T01:47:07.725Z,6.71
2022-12-26T01:52:36.279Z,6.75
2022-12-26T01:57:42.794Z,6.73
2022-12-26T02:03:03.248Z,6.70
2022-12-26T02:08:08.397Z,6.70
2022-12-26T02:13:10.477Z,6.68
2022-12-26T02:18:11.956Z,6.73
2022-12-26T02:23:16.419Z,6.73
2022-12-26T02:28:39.616Z,6.71
2022-12-26T02:33:59.093Z,6.73
2022-12-26T02:39:03.254Z,6.74
2022-12-26T02:44:51.947Z,6.73
2022-12-26T02:50:42.758Z,6.73
2022-12-26T02:56:08.270Z,6.73
2022-12-26T03:01:43.420Z,6.77
2022-12-26T03:07:13.743Z,6.81
2022-12-26T03:12:36.764Z,6.83
2022-12-26T03:17:43.437Z,6.79
2022-12-26T03:22:59.806Z,6.82
2022-12-26T03:28:01.601Z,6.83
2022-12-26T03:33:03.330Z,6.82
2022-12-26T03:38:11.426Z,6.84
2022-12-26T03:43:52.353Z,6.86
2022-12-26T03:49:21.744Z,6.86
2022-12-26T03:55:25.390Z,6.87
2022-12-26T04:00:49.599Z,6.96
2022-12-26T04:06:12.049Z,6.95
2022-12-26T04:11:35.653Z,6.98
2022-12-26T04:17:10.215Z,7.00
2022-12-26T04:22:41.771Z,7.00
2022-12-26T04:28:02.645Z,7.02
2022-12-26T04:33:34.675Z,7.05
2022-12-26T04:39:07.087Z,7.07
2022-12-26T04:44:10.092Z,7.08
2022-12-26T04:49:32.760Z,7.10
2022-12-26T04:54:34.571Z,7.12
2022-12-26T04:59:36.060Z,7.11
2022-12-26T05:04:56.020Z,7.11
2022-12-26T05:09:57.650Z,7.12
2022-12-26T05:14:59.143Z,7.13
2022-12-26T05:20:19.334Z,7.15
2022-12-26T05:25:45.682Z,7.19
2022-12-26T05:30:47.471Z,7.19
2022-12-26T05:35:49.072Z,7.24
2022-12-26T05:40:50.597Z,7.23
2022-12-26T05:45:52.102Z,7.24
2022-12-26T05:50:58.640Z,7.21
2022-12-26T05:56:07.957Z,7.21
2022-12-26T06:01:13.252Z,7.20
2022-12-26T06:06:16.010Z,7.23
2022-12-26T06:11:18.675Z,7.31
2022-12-26T06:16:20.368Z,7.29
2022-12-26T06:21:24.068Z,7.30
2022-12-26T06:26:25.874Z,7.29
2022-12-26T06:31:27.696Z,7.31
2022-12-26T06:36:30.048Z,7.31
2022-12-26T06:41:31.614Z,7.29
2022-12-26T06:46:33.234Z,7.36
2022-12-26T06:51:35.487Z,7.35
2022-12-26T06:56:37.326Z,7.38
2022-12-26T07:01:38.931Z,7.43
2022-12-26T07:06:40.585Z,7.46
2022-12-26T07:11:44.625Z,7.44
2022-12-26T07:16:46.389Z,7.46
2022-12-26T07:21:47.925Z,7.43
2022-12-26T07:26:49.957Z,7.43
2022-12-26T07:31:51.949Z,7.43
2022-12-26T07:36:53.647Z,7.40
2022-12-26T07:41:57.909Z,7.32
2022-12-26T07:47:00.454Z,7.35
2022-12-26T07:52:02.270Z,7.37
2022-12-26T07:57:37.991Z,7.41
2022-12-26T08:02:25.583Z,7.43
2022-12-26T08:07:27.241Z,7.43
2022-12-26T08:12:28.708Z,7.49
2022-12-26T08:17:32.708Z,7.41
2022-12-26T08:22:34.413Z,7.42
2022-12-26T08:27:35.962Z,7.46
2022-12-26T08:32:39.523Z,7.43
2022-12-26T08:37:44.182Z,7.41
2022-12-26T08:43:11.764Z,7.39
2022-12-26T08:48:07.129Z,7.36
2022-12-26T08:53:08.640Z,7.36
2022-12-26T08:58:10.901Z,7.37
2022-12-26T09:03:13.075Z,7.38
2022-12-26T09:08:14.594Z,7.43
2022-12-26T09:13:16.131Z,7.45
2022-12-26T09:18:17.597Z,7.51
2022-12-26T09:23:19.061Z,7.57
2022-12-26T09:28:20.734Z,7.60
2022-12-26T09:33:22.505Z,7.68
2022-12-26T09:38:24.081Z,7.78
2022-12-26T09:43:54.303Z,7.84
2022-12-26T09:49:17.036Z,7.97
2022-12-26T09:54:31.578Z,8.02
2022-12-26T09:59:45.317Z,8.03
2022-12-26T10:04:47.534Z,8.03
2022-12-26T10:10:07.655Z,8.09
2022-12-26T10:15:36.102Z,8.19
2022-12-26T10:21:03.941Z,8.24
2022-12-26T10:26:09.473Z,8.34
2022-12-26T10:31:42.127Z,8.44
2022-12-26T10:36:51.296Z,8.48
2022-12-26T10:41:59.074Z,8.43
2022-12-26T10:47:11.639Z,8.41
2022-12-26T10:52:15.874Z,8.42
2022-12-26T10:57:17.752Z,8.36
2022-12-26T11:02:32.062Z,8.40
2022-12-26T11:07:37.490Z,8.40
2022-12-26T11:12:50.175Z,8.56
2022-12-26T11:17:53.181Z,8.56
2022-12-26T11:22:55.429Z,8.52
2022-12-26T11:27:59.204Z,8.55
2022-12-26T11:33:14.819Z,8.54
2022-12-26T11:38:44.156Z,8.59
2022-12-26T11:43:47.271Z,8.60
2022-12-26T11:48:51.159Z,8.60
2022-12-26T11:54:22.444Z,8.61
2022-12-26T11:59:24.003Z,8.57
2022-12-26T12:04:25.491Z,8.63
2022-12-26T12:09:49.941Z,8.58
2022-12-26T12:15:12.883Z,8.03
2022-12-26T12:20:30.364Z,7.73
2022-12-26T12:25:51.934Z,7.55
2022-12-26T12:31:12.395Z,7.39
2022-12-26T12:36:22.066Z,7.34
2022-12-26T12:41:45.421Z,7.28
2022-12-26T12:47:28.769Z,7.07
2022-12-26T12:52:50.921Z,6.74
2022-12-26T12:58:01.241Z,6.37
2022-12-26T13:03:12.760Z,6.23
2022-12-26T13:08:25.086Z,6.14
2022-12-26T13:13:42.290Z,6.04
2022-12-26T13:18:55.751Z,6.00
2022-12-26T13:24:23.327Z,6.07
2022-12-26T13:29:36.714Z,6.02
2022-12-26T13:34:38.431Z,5.96
2022-12-26T13:39:40.696Z,5.91
2022-12-26T13:44:42.540Z,5.77
2022-12-26T13:49:44.092Z,5.80
2022-12-26T13:54:48.604Z,5.73
2022-12-26T14:00:23.044Z,5.73
2022-12-26T14:05:35.657Z,5.68
2022-12-26T14:10:58.370Z,5.69
2022-12-26T14:16:13.719Z,5.66
2022-12-26T14:21:33.012Z,5.64
2022-12-26T14:26:59.042Z,5.59
2022-12-26T14:32:22.281Z,5.54
2022-12-26T14:37:29.569Z,5.43
2022-12-26T14:42:50.088Z,5.37
2022-12-26T14:47:51.850Z,5.32
2022-12-26T14:52:53.500Z,5.31
2022-12-26T14:57:55.234Z,5.23
2022-12-26T15:03:01.468Z,5.14
2022-12-26T15:08:32.768Z,4.96
2022-12-26T15:13:46.435Z,4.82
2022-12-26T15:19:15.565Z,4.71
2022-12-26T15:25:08.405Z,4.59
2022-12-26T15:30:16.435Z,4.43
2022-12-26T15:35:49.046Z,4.26
2022-12-26T15:41:15.988Z,4.31
2022-12-26T15:46:27.586Z,4.35
2022-12-26T15:51:29.387Z,4.32
2022-12-26T15:56:43.003Z,4.23
2022-12-26T16:01:46.199Z,4.03
2022-12-26T16:06:50.789Z,3.92
2022-12-26T16:11:58.604Z,3.84
2022-12-26T16:17:20.432Z,3.82
2022-12-26T16:22:49.414Z,3.72
2022-12-26T16:27:56.056Z,3.68
2022-12-26T16:32:57.895Z,3.63
2022-12-26T16:38:01.435Z,3.56
2022-12-26T16:43:22.314Z,3.50
2022-12-26T16:48:25.681Z,3.44
2022-12-26T16:53:36.560Z,3.40
2022-12-26T16:58:38.552Z,3.35
2022-12-26T17:03:49.614Z,3.35
2022-12-26T17:08:52.336Z,3.35
2022-12-26T17:13:55.187Z,3.30
2022-12-26T17:19:09.854Z,3.27
2022-12-26T17:24:22.530Z,3.29
2022-12-26T17:29:37.523Z,3.24
2022-12-26T17:34:40.139Z,3.25
2022-12-26T17:39:41.722Z,3.18
2022-12-26T17:44:45.148Z,3.17
2022-12-26T17:49:47.927Z,3.17
2022-12-26T17:54:51.428Z,3.13
2022-12-26T17:59:54.274Z,3.06
2022-12-26T18:04:55.952Z,2.98
2022-12-26T18:09:57.716Z,2.89
2022-12-26T18:15:02.201Z,2.86
2022-12-26T18:20:05.552Z,2.86
2022-12-26T18:25:07.349Z,2.85
2022-12-26T18:30:19.260Z,2.82
2022-12-26T18:35:21.300Z,2.85
2022-12-26T18:40:38.056Z,2.82
2022-12-26T18:45:40.609Z,2.82
2022-12-26T18:50:43.357Z,2.80
2022-12-26T18:55:44.997Z,2.81
2022-12-26T19:00:46.746Z,2.75
2022-12-26T19:05:48.509Z,2.65
